createdAt,value
2022-08-02T00:00:33.000Z,2.4
2022-08-02T00:04:06.000Z,2.7
2022-08-02T00:07:39.000Z,2.6
2022-08-02T00:11:12.000Z,2.7
2022-08-02T00:14:44.000Z,2.6
2022-08-02T00:18:17.000Z,2.4
2022-08-02T00:21:08.000Z,2.8
2022-08-02T00:24:41.000Z,2.5
2022-08-02T00:28:14.000Z,2.7
2022-08-02T00:31:53.000Z,2.7
2022-08-02T00:36:28.000Z,3.1
2022-08-02T00:40:01.000Z,3
2022-08-02T00:43:33.000Z,2.8
2022-08-02T00:47:06.000Z,2.7
2022-08-02T00:50:45.000Z,2.7
2022-08-02T00:54:17.000Z,3
2022-08-02T00:57:51.000Z,2.8
2022-08-02T01:00:45.000Z,2.7
2022-08-02T01:04:18.000Z,2.8
2022-08-02T01:08:10.000Z,2.8
2022-08-02T01:11:42.000Z,2.7
2022-08-02T01:15:15.000Z,2.9
2022-08-02T01:19:01.000Z,2.8
2022-08-02T01:22:41.000Z,2.7
2022-08-02T01:26:26.000Z,3.2
2022-08-02T01:29:59.000Z,2.9
2022-08-02T01:33:32.000Z,3
2022-08-02T01:37:04.000Z,2.7
2022-08-02T01:39:55.000Z,2.7
2022-08-02T01:43:28.000Z,2.9
2022-08-02T01:47:01.000Z,2.6
2022-08-02T01:50:34.000Z,3
2022-08-02T01:54:07.000Z,3
2022-08-02T01:57:57.000Z,3.1
2022-08-02T02:01:29.000Z,3.1
2022-08-02T02:05:02.000Z,2.8
2022-08-02T02:08:35.000Z,2.9
2022-08-02T02:12:07.000Z,2.9
2022-08-02T02:15:40.000Z,2.9
2022-08-02T02:18:31.000Z,3
2022-08-02T02:22:04.000Z,3.6
2022-08-02T02:25:39.000Z,2.8
2022-08-02T02:29:12.000Z,2.7
2022-08-02T02:32:45.000Z,3.2
2022-08-02T02:36:17.000Z,3
2022-08-02T02:39:50.000Z,3.2
2022-08-02T02:43:22.000Z,3.2
2022-08-02T02:46:55.000Z,2.9
2022-08-02T02:50:28.000Z,3
2022-08-02T02:54:00.000Z,2.9
2022-08-02T02:57:18.000Z,3.3
2022-08-02T03:00:51.000Z,3.2
2022-08-02T03:04:23.000Z,3.2
2022-08-02T03:08:23.000Z,3.4
2022-08-02T03:11:55.000Z,3
2022-08-02T03:15:36.000Z,3.3
2022-08-02T03:19:09.000Z,3.6
2022-08-02T03:22:41.000Z,3.3
2022-08-02T03:26:26.000Z,3
2022-08-02T03:29:59.000Z,3.4
2022-08-02T03:33:31.000Z,3.5
2022-08-02T03:36:23.000Z,3.2
2022-08-02T03:39:55.000Z,3.5
2022-08-02T03:43:28.000Z,3.4
2022-08-02T03:47:07.000Z,3.2
2022-08-02T03:50:39.000Z,3.4
2022-08-02T03:54:12.000Z,3.4
2022-08-02T03:57:45.000Z,3.4
2022-08-02T04:01:18.000Z,3.5
2022-08-02T04:04:51.000Z,3.3
2022-08-02T04:08:27.000Z,3.3
2022-08-02T04:12:04.000Z,3.3
2022-08-02T04:14:55.000Z,3.5
2022-08-02T04:18:28.000Z,3.3
2022-08-02T04:22:01.000Z,3.6
2022-08-02T04:25:34.000Z,3.5
2022-08-02T04:30:14.000Z,3.4
2022-08-02T04:33:47.000Z,3.7
2022-08-02T04:37:19.000Z,3.6
2022-08-02T04:40:52.000Z,3.7
2022-08-02T04:44:25.000Z,3.9
2022-08-02T04:47:57.000Z,3.5
2022-08-02T04:51:31.000Z,3.7
2022-08-02T04:54:22.000Z,3.7
2022-08-02T04:57:55.000Z,3.2
2022-08-02T05:01:38.000Z,3.5
2022-08-02T05:05:11.000Z,3.5
2022-08-02T05:08:43.000Z,3.5
2022-08-02T05:12:18.000Z,3.8
2022-08-02T05:15:58.000Z,3.7
2022-08-02T05:19:30.000Z,3.9
2022-08-02T05:23:07.000Z,5.3
2022-08-02T05:26:43.000Z,6.6
2022-08-02T05:30:17.000Z,7.2
2022-08-02T05:33:09.000Z,4.8
2022-08-02T05:36:43.000Z,6
2022-08-02T05:40:24.000Z,7.8
2022-08-02T05:43:57.000Z,6.6
2022-08-02T05:47:30.000Z,4.8
2022-08-02T05:51:02.000Z,6.1
2022-08-02T05:54:35.000Z,7
2022-08-02T05:58:08.000Z,4.6
2022-08-02T06:01:40.000Z,6.1
2022-08-02T06:05:13.000Z,4.4
2022-08-02T06:08:46.000Z,3.8
2022-08-02T06:11:37.000Z,5.3
2022-08-02T06:15:27.000Z,3.6
2022-08-02T06:19:18.000Z,5.4
2022-08-02T06:22:50.000Z,4.3
2022-08-02T06:26:23.000Z,3.4
2022-08-02T06:29:56.000Z,4.2
2022-08-02T06:33:28.000Z,3.8
2022-08-02T06:37:01.000Z,3.8
2022-08-02T06:40:33.000Z,4.9
2022-08-02T06:44:06.000Z,4.2
2022-08-02T06:49:09.000Z,3.8
2022-08-02T06:52:00.000Z,3.9
2022-08-02T06:55:33.000Z,4.3
2022-08-02T06:59:09.000Z,5.4
2022-08-02T07:02:41.000Z,3.9
2022-08-02T07:06:18.000Z,4.2
2022-08-02T07:09:51.000Z,4.2
2022-08-02T07:13:27.000Z,4
2022-08-02T07:17:04.000Z,4
2022-08-02T07:20:37.000Z,4.5
2022-08-02T07:24:11.000Z,15.2
2022-08-02T07:28:02.000Z,10.1
2022-08-02T07:31:07.000Z,19
2022-08-02T07:34:40.000Z,3.6
2022-08-02T07:38:21.000Z,4.1
2022-08-02T07:41:54.000Z,6.5
2022-08-02T07:45:27.000Z,9.3
2022-08-02T07:49:01.000Z,3.4
2022-08-02T07:52:34.000Z,6.9
2022-08-02T07:56:06.000Z,3.7
2022-08-02T07:59:45.000Z,3.6
2022-08-02T08:03:18.000Z,3.4
2022-08-02T08:06:50.000Z,2.8
2022-08-02T08:09:42.000Z,3
2022-08-02T08:13:14.000Z,2.7
2022-08-02T08:16:47.000Z,2.6
2022-08-02T08:20:20.000Z,2.3
2022-08-02T08:23:52.000Z,2.4
2022-08-02T08:27:26.000Z,2.3
2022-08-02T08:30:58.000Z,2
2022-08-02T08:34:32.000Z,2
2022-08-02T08:38:05.000Z,1.8
2022-08-02T08:41:57.000Z,1.9
2022-08-02T08:45:29.000Z,1.9
2022-08-02T08:48:21.000Z,1.8
2022-08-02T08:51:56.000Z,1.6
2022-08-02T08:55:35.000Z,1.3
2022-08-02T08:59:12.000Z,1.2
2022-08-02T09:02:45.000Z,1.2
2022-08-02T09:06:17.000Z,1.1
2022-08-02T09:09:50.000Z,1.2
2022-08-02T09:13:23.000Z,1.5
2022-08-02T09:17:14.000Z,1.3
2022-08-02T09:20:47.000Z,1.2
2022-08-02T09:24:22.000Z,1.2
2022-08-02T09:27:15.000Z,1.1
2022-08-02T09:30:48.000Z,1.3
2022-08-02T09:34:21.000Z,1.2
2022-08-02T09:38:06.000Z,1.3
2022-08-02T09:41:45.000Z,1.1
2022-08-02T09:45:18.000Z,1
2022-08-02T09:48:50.000Z,1.2
2022-08-02T09:52:23.000Z,1.2
2022-08-02T09:56:09.000Z,1.1
2022-08-02T10:00:00.000Z,1.2
2022-08-02T10:03:50.000Z,1
2022-08-02T10:06:42.000Z,1.2
2022-08-02T10:10:15.000Z,1.1
2022-08-02T10:13:47.000Z,1.6
2022-08-02T10:17:26.000Z,1.1
2022-08-02T10:20:58.000Z,1.6
2022-08-02T10:24:31.000Z,1.2
2022-08-02T10:28:04.000Z,1.2
2022-08-02T10:31:53.000Z,1.3
2022-08-02T10:35:26.000Z,1.2
2022-08-02T10:38:59.000Z,1.4
2022-08-02T10:42:32.000Z,1.3
2022-08-02T10:45:23.000Z,1.4
2022-08-02T10:48:55.000Z,1.7
2022-08-02T10:53:02.000Z,1.6
2022-08-02T10:56:35.000Z,1.6
2022-08-02T11:00:08.000Z,1.5
2022-08-02T11:03:45.000Z,1.3
2022-08-02T11:07:17.000Z,1.6
2022-08-02T11:10:50.000Z,1.4
2022-08-02T11:14:23.000Z,1.3
2022-08-02T11:17:55.000Z,1.4
2022-08-02T11:21:28.000Z,1.4
2022-08-02T11:24:19.000Z,1.5
2022-08-02T11:28:09.000Z,1.5
2022-08-02T11:31:45.000Z,1.4
2022-08-02T11:35:20.000Z,1.4
2022-08-02T11:38:53.000Z,1.3
2022-08-02T11:42:34.000Z,1.3
2022-08-02T11:46:06.000Z,1.4
2022-08-02T11:49:39.000Z,1.3
2022-08-02T11:53:12.000Z,1.3
2022-08-02T11:56:45.000Z,1.2
2022-08-02T12:00:17.000Z,1.3
2022-08-02T12:03:14.000Z,1.5
2022-08-02T12:06:47.000Z,1.8
2022-08-02T12:10:24.000Z,1.4
2022-08-02T12:13:56.000Z,1.5
2022-08-02T12:17:33.000Z,1.9
2022-08-02T12:21:13.000Z,1.4
2022-08-02T12:24:45.000Z,1.6
2022-08-02T12:28:18.000Z,1.3
2022-08-02T12:31:57.000Z,1.2
2022-08-02T12:35:36.000Z,2.5
2022-08-02T12:39:10.000Z,1.3
2022-08-02T12:42:01.000Z,1.3
2022-08-02T12:45:34.000Z,2.5
2022-08-02T12:49:11.000Z,6.7
2022-08-02T12:52:44.000Z,1.5
2022-08-02T12:56:17.000Z,3.2
2022-08-02T12:59:49.000Z,1.7
2022-08-02T13:03:22.000Z,3.8
2022-08-02T13:07:56.000Z,4.4
2022-08-02T13:11:29.000Z,2.8
2022-08-02T13:15:02.000Z,2
2022-08-02T13:19:12.000Z,1.2
2022-08-02T13:22:03.000Z,1.1
2022-08-02T13:25:53.000Z,1.4
2022-08-02T13:29:27.000Z,1.4
2022-08-02T13:33:33.000Z,1.4
2022-08-02T13:37:16.000Z,1.2
2022-08-02T13:40:49.000Z,1.8
2022-08-02T13:44:30.000Z,2.3
2022-08-02T13:48:02.000Z,1.4
2022-08-02T13:51:50.000Z,1.5
2022-08-02T13:55:23.000Z,1.4
2022-08-02T13:58:55.000Z,1.4
2022-08-02T14:02:41.000Z,1.5
2022-08-02T14:06:14.000Z,1.4
2022-08-02T14:09:46.000Z,1.5
2022-08-02T14:13:19.000Z,1.2
2022-08-02T14:17:01.000Z,1.4
2022-08-02T14:20:34.000Z,1.3
2022-08-02T14:24:20.000Z,1.6
2022-08-02T14:27:52.000Z,1.3
2022-08-02T14:31:25.000Z,1.5
2022-08-02T14:34:58.000Z,1.6
2022-08-02T14:38:31.000Z,1.6
2022-08-02T14:41:22.000Z,1.4
2022-08-02T14:44:55.000Z,1.8
2022-08-02T14:48:27.000Z,1.5
2022-08-02T14:52:00.000Z,1.5
2022-08-02T14:55:48.000Z,1.5
2022-08-02T14:59:22.000Z,1.5
2022-08-02T15:02:55.000Z,1.6
2022-08-02T15:06:41.000Z,1.2
2022-08-02T15:10:16.000Z,1.5
2022-08-02T15:13:48.000Z,1.7
2022-08-02T15:17:24.000Z,1.6
2022-08-02T15:20:15.000Z,1.3
2022-08-02T15:23:55.000Z,1.4
2022-08-02T15:27:28.000Z,1.6
2022-08-02T15:31:05.000Z,1.6
2022-08-02T15:34:58.000Z,1.6
2022-08-02T15:38:30.000Z,1.6
2022-08-02T15:42:03.000Z,1.5
2022-08-02T15:45:59.000Z,1.7
2022-08-02T15:49:31.000Z,1.9
2022-08-02T15:53:07.000Z,1.7
2022-08-02T15:56:39.000Z,1.5
2022-08-02T15:59:31.000Z,1.3
2022-08-02T16:03:03.000Z,1.5
2022-08-02T16:06:36.000Z,2
2022-08-02T16:10:09.000Z,1.5
2022-08-02T16:13:41.000Z,1.4
2022-08-02T16:17:19.000Z,1.6
2022-08-02T16:21:46.000Z,1.5
2022-08-02T16:26:00.000Z,1.5
2022-08-02T16:29:58.000Z,1.5
2022-08-02T16:33:31.000Z,1.5
2022-08-02T16:37:07.000Z,1.3
2022-08-02T16:39:59.000Z,1.5
2022-08-02T16:43:51.000Z,1.5
2022-08-02T16:47:24.000Z,1.4
2022-08-02T16:54:26.000Z,1.8
2022-08-02T16:58:01.000Z,1.6
2022-08-02T17:01:42.000Z,1.4
2022-08-02T17:05:55.000Z,1.5
2022-08-02T17:10:16.000Z,1.5
2022-08-02T17:13:49.000Z,1.6
2022-08-02T17:18:16.000Z,1.5
2022-08-02T17:21:51.000Z,1.3
2022-08-02T17:24:37.000Z,1.5
2022-08-02T17:28:13.000Z,1.6
2022-08-02T17:31:57.000Z,1.4
2022-08-02T17:35:36.000Z,1.8
2022-08-02T17:39:18.000Z,1.5
2022-08-02T17:43:02.000Z,1.6
2022-08-02T17:46:48.000Z,1.4
2022-08-02T17:50:28.000Z,1.6
2022-08-02T17:54:51.000Z,1.5
2022-08-02T17:58:24.000Z,1.4
2022-08-02T18:02:03.000Z,1.4
2022-08-02T18:04:55.000Z,1.3
2022-08-02T18:08:31.000Z,1.5
2022-08-02T18:12:07.000Z,1.3
2022-08-02T18:15:52.000Z,1.5
2022-08-02T18:19:27.000Z,1.5
2022-08-02T18:23:21.000Z,1.6
2022-08-02T18:26:54.000Z,1.8
2022-08-02T18:30:27.000Z,1.7
2022-08-02T18:34:01.000Z,1.6
2022-08-02T18:37:33.000Z,1.7
2022-08-02T18:41:13.000Z,1.9
2022-08-02T18:44:05.000Z,1.7
2022-08-02T18:48:14.000Z,2.1
2022-08-02T18:51:54.000Z,1.8
2022-08-02T18:55:41.000Z,2
2022-08-02T19:00:17.000Z,2.1
2022-08-02T19:03:53.000Z,2
2022-08-02T19:07:52.000Z,2.1
2022-08-02T19:11:25.000Z,2
2022-08-02T19:15:00.000Z,2.1
2022-08-02T19:18:36.000Z,2.1
2022-08-02T19:22:18.000Z,1.8
2022-08-02T19:25:09.000Z,1.9
2022-08-02T19:28:50.000Z,2.2
2022-08-02T19:32:24.000Z,2.5
2022-08-02T19:36:10.000Z,2.1
2022-08-02T19:39:48.000Z,2.2
2022-08-02T19:43:24.000Z,2.3
2022-08-02T19:47:56.000Z,2.3
2022-08-02T19:51:39.000Z,2.3
2022-08-02T19:55:22.000Z,2.7
2022-08-02T19:59:33.000Z,2.4
2022-08-02T20:03:06.000Z,2.2
2022-08-02T20:05:59.000Z,2.2
2022-08-02T20:09:54.000Z,2.3
2022-08-02T20:13:33.000Z,2.8
2022-08-02T20:17:14.000Z,2.3
2022-08-02T20:20:46.000Z,2.6
2022-08-02T20:24:20.000Z,2.3
2022-08-02T20:27:54.000Z,2.5
2022-08-02T20:54:24.000Z,2.7
2022-08-02T20:57:57.000Z,2.9
2022-08-02T21:01:30.000Z,2.9
2022-08-02T21:05:04.000Z,2.8
2022-08-02T21:08:45.000Z,2.8
2022-08-02T21:12:22.000Z,3
2022-08-02T21:16:07.000Z,3
2022-08-02T21:19:56.000Z,3
2022-08-02T21:23:29.000Z,3.1
2022-08-02T21:27:07.000Z,3.1
2022-08-02T21:31:19.000Z,3.1
2022-08-02T21:34:16.000Z,2.9
2022-08-02T21:37:52.000Z,3.1
2022-08-02T21:41:25.000Z,3
2022-08-02T21:45:14.000Z,3
2022-08-02T21:48:48.000Z,3
2022-08-02T21:52:24.000Z,2.6
2022-08-02T21:56:18.000Z,3.1
2022-08-02T21:59:50.000Z,3.4
2022-08-02T22:03:28.000Z,3.1
2022-08-02T22:07:02.000Z,3.3
2022-08-02T22:10:35.000Z,2.9
2022-08-02T22:13:27.000Z,3.3
2022-08-02T22:17:13.000Z,3.2
2022-08-02T22:20:51.000Z,3.5
2022-08-02T22:24:27.000Z,3.2
2022-08-02T22:28:00.000Z,3.7
2022-08-02T22:32:08.000Z,3.7
2022-08-02T22:36:00.000Z,3.3
2022-08-02T22:40:16.000Z,3.5
2022-08-02T22:44:05.000Z,3.4
2022-08-02T22:47:39.000Z,3.5
2022-08-02T22:51:50.000Z,3.3
2022-08-02T22:54:42.000Z,3.7
2022-08-02T22:58:16.000Z,3.8
2022-08-02T23:01:51.000Z,3.5
2022-08-02T23:05:23.000Z,3.5
2022-08-02T23:08:56.000Z,3.4
2022-08-02T23:12:28.000Z,3.8
2022-08-02T23:16:01.000Z,3.6
2022-08-02T23:19:34.000Z,3.8
2022-08-02T23:23:06.000Z,3.9
2022-08-02T23:26:39.000Z,3.7
2022-08-02T23:30:12.000Z,3.9
2022-08-02T23:33:03.000Z,3.8
2022-08-02T23:36:35.000Z,3.7
2022-08-02T23:40:08.000Z,3.7
2022-08-02T23:44:05.000Z,4.2
2022-08-02T23:47:40.000Z,4.2
2022-08-02T23:51:13.000Z,4
2022-08-02T23:54:47.000Z,4.1
2022-08-02T23:58:20.000Z,4.3
